createdAt,value
2022-07-26T00:02:20.849Z,19.10
2022-07-26T00:04:47.582Z,19.00
2022-07-26T00:07:14.638Z,19.00
2022-07-26T00:09:46.341Z,19.00
2022-07-26T00:12:14.774Z,19.00
2022-07-26T00:14:42.902Z,19.00
2022-07-26T00:17:09.527Z,19.00
2022-07-26T00:19:36.283Z,19.00
2022-07-26T00:22:21.438Z,18.90
2022-07-26T00:24:48.082Z,18.90
2022-07-26T00:27:14.849Z,18.90
2022-07-26T00:29:41.490Z,18.80
2022-07-26T00:32:08.122Z,18.80
2022-07-26T00:34:34.914Z,18.80
2022-07-26T00:37:01.548Z,18.80
2022-07-26T00:39:28.874Z,18.70
2022-07-26T00:41:55.665Z,18.70
2022-07-26T00:44:22.464Z,18.70
2022-07-26T00:46:49.179Z,18.60
2022-07-26T00:49:15.936Z,18.60
2022-07-26T00:51:46.345Z,18.50
2022-07-26T00:54:13.418Z,18.50
2022-07-26T00:56:40.243Z,18.50
2022-07-26T00:59:07.387Z,18.50
2022-07-26T01:01:34.380Z,18.40
2022-07-26T01:04:01.235Z,18.40
2022-07-26T01:06:27.990Z,18.30
2022-07-26T01:08:55.025Z,18.30
2022-07-26T01:11:21.787Z,18.20
2022-07-26T01:13:50.338Z,18.20
2022-07-26T01:16:17.716Z,18.20
2022-07-26T01:18:45.009Z,18.10
2022-07-26T01:21:13.803Z,18.10
2022-07-26T01:23:41.747Z,18.10
2022-07-26T01:26:08.592Z,18.10
2022-07-26T01:28:39.690Z,18.00
2022-07-26T01:31:07.777Z,18.00
2022-07-26T01:33:35.062Z,17.90
2022-07-26T01:36:01.838Z,17.90
2022-07-26T01:38:28.822Z,17.80
2022-07-26T01:40:55.504Z,17.80
2022-07-26T01:43:22.246Z,17.80
2022-07-26T01:45:48.991Z,17.80
2022-07-26T01:48:16.077Z,17.80
2022-07-26T01:50:42.915Z,17.80
2022-07-26T01:53:09.828Z,17.80
2022-07-26T01:55:36.944Z,17.80
2022-07-26T01:58:05.464Z,17.80
2022-07-26T02:00:32.790Z,17.80
2022-07-26T02:02:59.791Z,17.80
2022-07-26T02:05:26.929Z,17.80
2022-07-26T02:07:53.674Z,17.80
2022-07-26T02:10:21.349Z,17.80
2022-07-26T02:12:48.627Z,17.80
2022-07-26T02:15:16.282Z,17.80
2022-07-26T02:17:43.314Z,17.80
2022-07-26T02:20:10.495Z,17.80
2022-07-26T02:22:37.346Z,17.80
2022-07-26T02:25:05.567Z,17.90
2022-07-26T02:27:32.659Z,18.00
2022-07-26T02:29:59.485Z,18.00
2022-07-26T02:32:26.153Z,18.00
2022-07-26T02:34:52.787Z,18.00
2022-07-26T02:37:19.456Z,18.00
2022-07-26T02:39:46.126Z,18.00
2022-07-26T02:42:12.849Z,18.00
2022-07-26T02:44:41.487Z,18.00
2022-07-26T02:47:08.175Z,18.00
2022-07-26T02:49:34.838Z,18.00
2022-07-26T02:52:01.479Z,18.00
2022-07-26T02:54:28.204Z,18.00
2022-07-26T02:56:54.858Z,18.00
2022-07-26T02:59:21.501Z,17.90
2022-07-26T03:01:48.304Z,17.90
2022-07-26T03:04:15.103Z,17.90
2022-07-26T03:06:41.805Z,17.90
2022-07-26T03:09:08.534Z,17.90
2022-07-26T03:11:35.242Z,17.80
2022-07-26T03:14:01.991Z,17.80
2022-07-26T03:16:29.815Z,17.70
2022-07-26T03:18:57.351Z,17.70
2022-07-26T03:21:24.526Z,17.80
2022-07-26T03:23:51.252Z,17.80
2022-07-26T03:26:17.874Z,17.80
2022-07-26T03:28:44.632Z,17.80
2022-07-26T03:31:12.934Z,17.80
2022-07-26T03:33:40.966Z,17.80
2022-07-26T03:36:11.517Z,17.70
2022-07-26T03:38:39.466Z,17.70
2022-07-26T03:41:06.515Z,17.80
2022-07-26T03:43:36.299Z,17.80
2022-07-26T03:46:03.405Z,17.90
2022-07-26T03:48:31.162Z,17.90
2022-07-26T03:50:57.956Z,17.90
2022-07-26T03:53:24.647Z,17.90
2022-07-26T03:56:10.211Z,17.90
2022-07-26T03:58:36.851Z,17.90
2022-07-26T04:01:04.219Z,17.90
2022-07-26T04:03:30.979Z,17.90
2022-07-26T04:05:57.701Z,18.00
2022-07-26T04:08:24.887Z,18.00
2022-07-26T04:10:51.599Z,18.00
2022-07-26T04:13:19.386Z,18.10
2022-07-26T04:15:46.545Z,18.20
2022-07-26T04:18:14.311Z,18.30
2022-07-26T04:20:41.550Z,18.30
2022-07-26T04:23:12.321Z,18.30
2022-07-26T04:25:41.427Z,18.40
2022-07-26T04:28:08.993Z,18.50
2022-07-26T04:30:36.132Z,18.60
2022-07-26T04:33:03.050Z,18.80
2022-07-26T04:35:29.753Z,19.30
2022-07-26T04:37:56.444Z,20.10
2022-07-26T04:40:23.963Z,20.70
2022-07-26T04:42:52.045Z,21.30
2022-07-26T04:45:19.458Z,22.00
2022-07-26T04:47:49.685Z,22.50
2022-07-26T04:50:17.450Z,22.70
2022-07-26T04:52:44.150Z,22.70
2022-07-26T04:55:11.444Z,22.80
2022-07-26T04:57:38.146Z,23.00
2022-07-26T05:00:21.378Z,23.40
2022-07-26T05:02:50.474Z,23.60
2022-07-26T05:05:17.375Z,23.90
2022-07-26T05:07:51.698Z,24.20
2022-07-26T05:10:20.325Z,24.30
2022-07-26T05:12:47.611Z,24.20
2022-07-26T05:15:15.582Z,24.10
2022-07-26T05:17:43.603Z,24.00
2022-07-26T05:20:12.662Z,23.90
2022-07-26T05:22:39.505Z,24.10
2022-07-26T05:25:07.231Z,24.40
2022-07-26T05:27:34.107Z,24.40
2022-07-26T05:30:01.126Z,24.40
2022-07-26T05:32:30.752Z,24.50
2022-07-26T05:34:57.516Z,24.80
2022-07-26T05:37:24.149Z,25.10
2022-07-26T05:39:50.962Z,25.40
2022-07-26T05:42:17.663Z,25.60
2022-07-26T05:44:44.517Z,25.70
2022-07-26T05:47:11.470Z,25.50
2022-07-26T05:49:40.333Z,25.40
2022-07-26T05:52:10.559Z,25.40
2022-07-26T05:54:37.267Z,25.50
2022-07-26T05:57:04.481Z,25.50
2022-07-26T05:59:31.605Z,25.60
2022-07-26T06:01:58.389Z,25.60
2022-07-26T06:04:26.661Z,25.50
2022-07-26T06:06:54.888Z,25.70
2022-07-26T06:09:24.212Z,25.50
2022-07-26T06:11:51.186Z,25.60
2022-07-26T06:14:18.421Z,25.80
2022-07-26T06:16:49.504Z,26.10
2022-07-26T06:19:16.597Z,26.00
2022-07-26T06:21:45.563Z,26.30
2022-07-26T06:24:13.125Z,26.30
2022-07-26T06:26:40.005Z,26.30
2022-07-26T06:29:06.916Z,26.60
2022-07-26T06:31:33.819Z,26.60
2022-07-26T06:34:00.569Z,26.60
2022-07-26T06:36:30.528Z,26.80
2022-07-26T06:38:58.044Z,26.60
2022-07-26T06:41:24.754Z,26.40
2022-07-26T06:43:51.521Z,26.80
2022-07-26T06:46:19.352Z,27.10
2022-07-26T06:48:47.637Z,27.20
2022-07-26T06:51:19.890Z,27.20
2022-07-26T06:53:46.652Z,27.00
2022-07-26T06:56:14.924Z,26.60
2022-07-26T06:58:42.504Z,26.10
2022-07-26T07:01:59.303Z,25.80
2022-07-26T07:04:11.468Z,25.50
2022-07-26T07:06:38.357Z,25.30
2022-07-26T07:09:05.919Z,25.10
2022-07-26T07:11:35.594Z,24.90
2022-07-26T07:14:03.300Z,24.50
2022-07-26T07:16:30.416Z,24.30
2022-07-26T07:18:57.241Z,24.30
2022-07-26T07:21:23.882Z,24.50
2022-07-26T07:23:50.558Z,24.70
2022-07-26T07:26:17.278Z,24.90
2022-07-26T07:28:44.078Z,25.00
2022-07-26T07:31:10.822Z,24.70
2022-07-26T07:33:52.776Z,24.40
2022-07-26T07:36:21.037Z,24.20
2022-07-26T07:38:50.933Z,24.00
2022-07-26T07:41:18.865Z,24.10
2022-07-26T07:43:45.818Z,24.20
2022-07-26T07:46:13.355Z,24.40
2022-07-26T07:48:46.673Z,24.70
2022-07-26T07:51:14.167Z,25.40
2022-07-26T07:53:40.910Z,26.20
2022-07-26T07:56:07.927Z,27.60
2022-07-26T07:58:34.578Z,28.50
2022-07-26T08:01:01.464Z,28.30
2022-07-26T08:03:38.747Z,27.70
2022-07-26T08:06:07.357Z,27.40
2022-07-26T08:08:34.903Z,27.30
2022-07-26T08:11:01.950Z,27.10
2022-07-26T08:13:30.843Z,26.80
2022-07-26T08:15:57.856Z,27.30
2022-07-26T08:18:26.590Z,28.10
2022-07-26T08:20:54.194Z,29.30
2022-07-26T08:23:23.900Z,29.50
2022-07-26T08:26:01.876Z,29.50
2022-07-26T08:31:17.226Z,28.10
2022-07-26T08:33:46.544Z,28.20
2022-07-26T08:36:14.919Z,28.60
2022-07-26T08:38:41.897Z,28.70
2022-07-26T08:41:08.955Z,28.70
2022-07-26T08:43:51.518Z,28.80
2022-07-26T08:46:24.882Z,29.00
2022-07-26T08:48:53.736Z,29.20
2022-07-26T08:51:24.176Z,29.30
2022-07-26T08:54:05.766Z,29.70
2022-07-26T08:56:34.691Z,29.90
2022-07-26T08:59:18.620Z,29.30
2022-07-26T09:01:58.508Z,29.20
2022-07-26T09:04:32.627Z,29.30
2022-07-26T09:07:08.028Z,29.50
2022-07-26T09:09:55.390Z,29.80
2022-07-26T09:12:23.334Z,29.90
2022-07-26T09:14:50.530Z,29.90
2022-07-26T09:17:19.406Z,29.90
2022-07-26T09:20:02.113Z,30.30
2022-07-26T09:22:28.750Z,30.70
2022-07-26T09:24:55.449Z,29.50
2022-07-26T09:27:26.480Z,28.30
2022-07-26T09:29:57.280Z,28.00
2022-07-26T09:32:25.739Z,27.80
2022-07-26T09:35:36.974Z,27.80
2022-07-26T09:37:58.430Z,28.50
2022-07-26T09:40:33.062Z,29.00
2022-07-26T09:43:02.815Z,28.50
2022-07-26T09:45:31.552Z,27.60
2022-07-26T09:47:58.639Z,26.60
2022-07-26T09:50:30.736Z,25.80
2022-07-26T09:53:09.112Z,25.40
2022-07-26T09:55:57.858Z,25.10
2022-07-26T09:58:24.909Z,24.70
2022-07-26T10:00:51.642Z,24.50
2022-07-26T10:03:18.386Z,24.30
2022-07-26T10:05:45.042Z,24.00
2022-07-26T10:08:13.171Z,23.30
2022-07-26T10:10:55.658Z,22.10
2022-07-26T10:13:22.853Z,21.10
2022-07-26T10:15:50.763Z,20.20
2022-07-26T10:18:35.949Z,19.60
2022-07-26T10:21:22.499Z,19.30
2022-07-26T10:23:50.555Z,19.10
2022-07-26T10:26:32.166Z,19.10
2022-07-26T10:29:17.230Z,19.00
2022-07-26T10:32:10.361Z,18.80
2022-07-26T10:34:38.926Z,18.50
2022-07-26T10:37:11.795Z,18.30
2022-07-26T10:39:39.440Z,18.10
2022-07-26T10:42:08.626Z,18.00
2022-07-26T10:44:41.946Z,17.90
2022-07-26T10:47:08.556Z,17.90
2022-07-26T10:49:36.431Z,17.80
2022-07-26T10:52:19.418Z,17.80
2022-07-26T10:55:04.113Z,17.90
2022-07-26T10:57:33.929Z,18.00
2022-07-26T11:00:01.673Z,17.90
2022-07-26T11:02:32.340Z,18.10
2022-07-26T11:05:03.970Z,18.30
2022-07-26T11:07:31.444Z,18.60
2022-07-26T11:09:59.922Z,18.60
2022-07-26T11:12:27.488Z,18.80
2022-07-26T11:14:54.372Z,19.10
2022-07-26T11:17:26.672Z,19.30
2022-07-26T11:19:53.977Z,19.50
2022-07-26T11:22:21.724Z,19.40
2022-07-26T11:24:48.699Z,19.40
2022-07-26T11:27:15.506Z,19.50
2022-07-26T11:29:42.221Z,19.30
2022-07-26T11:32:24.601Z,19.50
2022-07-26T11:34:59.679Z,19.70
2022-07-26T11:37:26.417Z,19.80
2022-07-26T11:39:53.075Z,20.00
2022-07-26T11:42:21.534Z,20.10
2022-07-26T11:44:49.659Z,20.30
2022-07-26T11:47:25.283Z,20.50
2022-07-26T11:50:11.614Z,20.70
2022-07-26T11:52:39.533Z,20.70
2022-07-26T11:55:06.983Z,21.00
2022-07-26T11:57:33.677Z,21.60
2022-07-26T12:00:01.363Z,22.20
2022-07-26T12:02:38.376Z,22.90
2022-07-26T12:05:21.077Z,23.40
2022-07-26T12:08:04.109Z,23.30
2022-07-26T12:10:31.379Z,23.80
2022-07-26T12:13:15.372Z,23.50
2022-07-26T12:15:51.304Z,23.60
2022-07-26T12:18:28.049Z,23.50
2022-07-26T12:21:07.514Z,23.20
2022-07-26T12:23:46.348Z,23.50
2022-07-26T12:26:22.882Z,23.80
2022-07-26T12:28:49.491Z,23.40
2022-07-26T12:31:24.303Z,22.80
2022-07-26T12:33:51.098Z,22.40
2022-07-26T12:36:27.471Z,21.90
2022-07-26T12:38:57.423Z,21.90
2022-07-26T12:41:40.420Z,22.00
2022-07-26T12:44:11.707Z,22.10
2022-07-26T12:46:39.143Z,22.20
2022-07-26T12:49:06.129Z,22.10
2022-07-26T12:51:33.347Z,21.90
2022-07-26T12:54:00.117Z,21.90
2022-07-26T12:56:26.820Z,22.20
2022-07-26T12:58:54.358Z,22.60
2022-07-26T13:01:21.456Z,22.70
2022-07-26T13:03:48.355Z,22.90
2022-07-26T13:06:15.034Z,23.30
2022-07-26T13:08:41.715Z,23.90
2022-07-26T13:11:08.439Z,24.60
2022-07-26T13:13:35.175Z,25.00
2022-07-26T13:16:01.783Z,25.30
2022-07-26T13:18:30.737Z,25.20
2022-07-26T13:20:57.479Z,25.20
2022-07-26T13:23:26.907Z,25.20
2022-07-26T13:25:53.694Z,25.40
2022-07-26T13:28:21.250Z,25.30
2022-07-26T13:30:47.974Z,24.70
2022-07-26T13:33:16.578Z,24.50
2022-07-26T13:35:43.453Z,24.50
2022-07-26T13:38:10.123Z,24.40
2022-07-26T13:40:36.896Z,24.10
2022-07-26T13:43:04.386Z,23.90
2022-07-26T13:45:31.080Z,24.00
2022-07-26T13:47:59.049Z,23.70
2022-07-26T13:50:29.584Z,24.00
2022-07-26T13:52:56.905Z,24.20
2022-07-26T13:55:24.775Z,24.20
2022-07-26T13:57:55.841Z,23.90
2022-07-26T14:00:28.873Z,23.80
2022-07-26T14:02:58.290Z,23.70
2022-07-26T14:05:27.334Z,23.80
2022-07-26T14:07:55.139Z,24.10
2022-07-26T14:10:23.017Z,24.50
2022-07-26T14:12:49.923Z,24.80
2022-07-26T14:15:22.179Z,25.20
2022-07-26T14:17:50.538Z,25.90
2022-07-26T14:20:17.671Z,26.30
2022-07-26T14:22:44.987Z,26.30
2022-07-26T14:25:11.793Z,25.90
2022-07-26T14:27:38.612Z,25.80
2022-07-26T14:30:06.438Z,25.90
2022-07-26T14:32:33.178Z,25.00
2022-07-26T14:34:59.843Z,24.40
2022-07-26T14:37:42.165Z,24.60
2022-07-26T14:40:13.165Z,24.50
2022-07-26T14:42:39.997Z,24.80
2022-07-26T14:45:07.806Z,25.30
2022-07-26T14:47:34.703Z,25.60
2022-07-26T14:50:06.242Z,25.30
2022-07-26T14:52:36.622Z,24.80
2022-07-26T14:55:03.658Z,24.40
2022-07-26T14:57:30.287Z,24.30
2022-07-26T14:59:57.050Z,24.40
2022-07-26T15:02:23.842Z,24.00
2022-07-26T15:04:50.822Z,23.70
2022-07-26T15:07:17.673Z,24.00
2022-07-26T15:09:44.318Z,24.10
2022-07-26T15:12:11.028Z,24.20
2022-07-26T15:14:37.839Z,24.10
2022-07-26T15:17:04.584Z,24.00
2022-07-26T15:19:31.310Z,23.90
2022-07-26T15:21:58.925Z,23.40
2022-07-26T15:24:27.040Z,23.00
2022-07-26T15:26:53.907Z,22.80
2022-07-26T15:29:20.804Z,22.80
2022-07-26T15:31:49.112Z,22.70
2022-07-26T15:34:16.269Z,22.80
2022-07-26T15:36:43.328Z,23.30
2022-07-26T15:39:18.247Z,23.90
2022-07-26T15:41:47.241Z,24.00
2022-07-26T15:44:16.620Z,23.80
2022-07-26T15:46:45.697Z,23.70
2022-07-26T15:49:14.201Z,23.70
2022-07-26T15:51:41.985Z,23.50
2022-07-26T15:54:10.353Z,23.30
2022-07-26T15:56:37.428Z,23.70
2022-07-26T15:59:07.105Z,24.20
2022-07-26T16:01:34.645Z,24.10
2022-07-26T16:04:01.578Z,23.90
2022-07-26T16:06:28.625Z,23.90
2022-07-26T16:09:15.229Z,23.90
2022-07-26T16:11:42.140Z,23.80
2022-07-26T16:14:08.788Z,23.40
2022-07-26T16:16:35.494Z,23.00
2022-07-26T16:19:02.249Z,22.90
2022-07-26T16:21:28.922Z,22.70
2022-07-26T16:23:55.622Z,22.60
2022-07-26T16:26:23.404Z,22.70
2022-07-26T16:28:50.113Z,22.70
2022-07-26T16:31:17.102Z,22.80
2022-07-26T16:33:46.438Z,23.00
2022-07-26T16:36:14.287Z,23.10
2022-07-26T16:38:41.107Z,23.20
2022-07-26T16:41:08.097Z,23.30
2022-07-26T16:43:35.298Z,23.40
2022-07-26T16:46:02.291Z,23.60
2022-07-26T16:48:29.053Z,23.60
2022-07-26T16:50:55.863Z,23.50
2022-07-26T16:53:22.630Z,23.30
2022-07-26T16:55:51.703Z,23.20
2022-07-26T16:58:19.293Z,22.90
2022-07-26T17:00:46.596Z,22.80
2022-07-26T17:03:15.601Z,22.80
2022-07-26T17:05:43.719Z,22.70
2022-07-26T17:08:10.616Z,22.70
2022-07-26T17:10:37.885Z,22.60
2022-07-26T17:13:04.609Z,22.30
2022-07-26T17:15:31.310Z,21.90
2022-07-26T17:17:58.220Z,21.70
2022-07-26T17:20:25.287Z,21.80
2022-07-26T17:22:52.058Z,21.70
2022-07-26T17:25:18.805Z,21.60
2022-07-26T17:27:45.586Z,21.50
2022-07-26T17:30:12.651Z,21.50
2022-07-26T17:32:39.388Z,21.40
2022-07-26T17:35:06.605Z,21.40
2022-07-26T17:37:36.905Z,21.20
2022-07-26T17:40:07.781Z,21.10
2022-07-26T17:42:35.198Z,21.10
2022-07-26T17:45:02.213Z,21.20
2022-07-26T17:47:30.360Z,21.30
2022-07-26T17:50:34.161Z,21.20
2022-07-26T17:52:50.298Z,21.20
2022-07-26T17:55:18.538Z,21.20
2022-07-26T17:57:45.885Z,21.30
2022-07-26T18:00:13.759Z,21.30
2022-07-26T18:02:40.807Z,21.20
2022-07-26T18:05:07.912Z,21.20
2022-07-26T18:07:34.675Z,21.20
2022-07-26T18:10:01.389Z,21.20
2022-07-26T18:12:28.078Z,21.10
2022-07-26T18:14:54.749Z,21.10
2022-07-26T18:17:21.506Z,21.00
2022-07-26T18:19:48.235Z,20.90
2022-07-26T18:22:14.926Z,21.00
2022-07-26T18:24:41.647Z,20.90
2022-07-26T18:27:08.334Z,20.80
2022-07-26T18:29:34.984Z,20.80
2022-07-26T18:32:02.201Z,20.80
2022-07-26T18:34:29.095Z,20.70
2022-07-26T18:36:56.102Z,20.70
2022-07-26T18:39:22.827Z,20.50
2022-07-26T18:41:49.531Z,20.40
2022-07-26T18:44:16.272Z,20.40
2022-07-26T18:46:42.941Z,20.20
2022-07-26T18:49:15.780Z,20.20
2022-07-26T18:51:48.841Z,20.10
2022-07-26T18:54:16.409Z,20.10
2022-07-26T18:56:43.621Z,20.00
2022-07-26T18:59:10.745Z,20.00
2022-07-26T19:01:37.850Z,20.00
2022-07-26T19:04:06.971Z,19.90
2022-07-26T19:06:34.969Z,19.80
2022-07-26T19:09:01.852Z,19.80
2022-07-26T19:11:30.157Z,19.80
2022-07-26T19:13:56.814Z,19.80
2022-07-26T19:16:23.604Z,19.80
2022-07-26T19:18:55.392Z,19.70
2022-07-26T19:21:24.199Z,19.60
2022-07-26T19:23:50.954Z,19.60
2022-07-26T19:26:17.689Z,19.60
2022-07-26T19:28:44.367Z,19.60
2022-07-26T19:31:11.170Z,19.50
2022-07-26T19:33:37.862Z,19.50
2022-07-26T19:36:04.776Z,19.40
2022-07-26T19:38:32.953Z,19.40
2022-07-26T19:41:00.178Z,19.30
2022-07-26T19:43:27.493Z,19.30
2022-07-26T19:45:54.493Z,19.10
2022-07-26T19:48:21.251Z,19.10
2022-07-26T19:50:47.996Z,19.00
2022-07-26T19:53:14.641Z,18.90
2022-07-26T19:55:42.377Z,18.80
2022-07-26T19:58:09.274Z,18.80
2022-07-26T20:00:36.037Z,18.70
2022-07-26T20:03:02.924Z,18.60
2022-07-26T20:05:29.744Z,18.60
2022-07-26T20:07:56.526Z,18.40
2022-07-26T20:10:26.236Z,18.30
2022-07-26T20:12:55.335Z,18.30
2022-07-26T20:15:22.549Z,18.20
2022-07-26T20:17:49.222Z,18.20
2022-07-26T20:20:17.786Z,18.10
2022-07-26T20:22:44.503Z,18.00
2022-07-26T20:25:11.899Z,17.90
2022-07-26T20:27:38.690Z,17.80
2022-07-26T20:30:06.439Z,17.70
2022-07-26T20:32:33.171Z,17.60
2022-07-26T20:34:59.886Z,17.50
2022-07-26T20:37:26.629Z,17.50
2022-07-26T20:39:53.342Z,17.40
2022-07-26T20:42:22.161Z,17.40
2022-07-26T20:44:50.575Z,17.30
2022-07-26T20:47:17.237Z,17.30
2022-07-26T20:49:44.458Z,17.20
2022-07-26T20:52:11.350Z,17.20
2022-07-26T20:54:38.208Z,17.20
2022-07-26T20:57:05.046Z,17.10
2022-07-26T20:59:32.384Z,17.20
2022-07-26T21:01:59.212Z,17.20
2022-07-26T21:04:26.203Z,17.30
2022-07-26T21:06:53.145Z,17.30
2022-07-26T21:09:19.830Z,17.30
2022-07-26T21:11:46.801Z,17.30
2022-07-26T21:14:13.753Z,17.40
2022-07-26T21:16:40.501Z,17.30
2022-07-26T21:19:07.417Z,17.30
2022-07-26T21:21:34.651Z,17.40
2022-07-26T21:24:01.354Z,17.30
2022-07-26T21:26:28.178Z,17.30
2022-07-26T21:28:54.817Z,17.30
2022-07-26T21:31:21.647Z,17.20
2022-07-26T21:33:48.349Z,17.20
2022-07-26T21:36:15.013Z,17.20
2022-07-26T21:38:41.966Z,17.30
2022-07-26T21:41:08.882Z,17.30
2022-07-26T21:43:40.023Z,17.20
2022-07-26T21:46:10.494Z,17.20
2022-07-26T21:48:39.674Z,17.20
2022-07-26T21:51:06.593Z,17.20
2022-07-26T21:53:33.244Z,17.10
2022-07-26T21:55:59.984Z,17.00
2022-07-26T21:58:28.087Z,16.90
2022-07-26T22:01:03.421Z,16.90
2022-07-26T22:03:36.862Z,16.80
2022-07-26T22:06:05.162Z,16.80
2022-07-26T22:08:32.187Z,16.80
2022-07-26T22:10:59.438Z,16.80
2022-07-26T22:13:26.425Z,16.80
2022-07-26T22:15:53.400Z,16.80
2022-07-26T22:18:22.858Z,16.70
2022-07-26T22:20:49.864Z,16.70
2022-07-26T22:23:17.797Z,16.70
2022-07-26T22:25:45.052Z,16.70
2022-07-26T22:28:12.786Z,16.60
2022-07-26T22:30:45.923Z,16.60
2022-07-26T22:33:12.624Z,16.60
2022-07-26T22:35:39.487Z,16.60
2022-07-26T22:38:08.647Z,16.50
2022-07-26T22:40:36.050Z,16.50
2022-07-26T22:43:02.931Z,16.50
2022-07-26T22:45:30.666Z,16.60
2022-07-26T22:47:57.870Z,16.60
2022-07-26T22:50:25.514Z,16.50
2022-07-26T22:52:52.355Z,16.50
2022-07-26T22:55:19.965Z,16.50
2022-07-26T22:57:46.667Z,16.50
2022-07-26T23:00:16.099Z,16.50
2022-07-26T23:02:43.634Z,16.50
2022-07-26T23:05:10.905Z,16.50
2022-07-26T23:07:38.087Z,16.50
2022-07-26T23:10:07.447Z,16.50
2022-07-26T23:12:34.678Z,16.40
2022-07-26T23:15:01.509Z,16.30
2022-07-26T23:17:28.214Z,16.40
2022-07-26T23:19:54.858Z,16.30
2022-07-26T23:22:21.660Z,16.20
2022-07-26T23:24:48.422Z,16.10
2022-07-26T23:27:19.808Z,16.00
2022-07-26T23:29:48.310Z,15.90
2022-07-26T23:32:15.956Z,15.80
2022-07-26T23:34:42.789Z,15.60
2022-07-26T23:37:09.817Z,15.60
2022-07-26T23:39:36.956Z,15.60
2022-07-26T23:42:03.851Z,15.50
2022-07-26T23:44:31.086Z,15.40
2022-07-26T23:46:58.743Z,15.40
2022-07-26T23:49:25.807Z,15.40
2022-07-26T23:51:53.222Z,15.30
2022-07-26T23:54:19.913Z,15.20
2022-07-26T23:56:47.400Z,15.10
2022-07-26T23:59:14.718Z,15.10
